createdAt,value
2023-04-17T00:01:40.733Z,20.00
2023-04-17T00:04:10.962Z,15.70
2023-04-17T00:06:38.600Z,20.42
2023-04-17T00:09:06.143Z,21.23
2023-04-17T00:11:33.061Z,18.98
2023-04-17T00:13:59.971Z,16.23
2023-04-17T00:16:27.352Z,22.08
2023-04-17T00:18:57.571Z,19.35
2023-04-17T00:21:24.367Z,19.38
2023-04-17T00:23:51.198Z,17.88
2023-04-17T00:26:19.654Z,20.33
2023-04-17T00:28:47.788Z,16.55
2023-04-17T00:31:14.701Z,16.92
2023-04-17T00:33:41.592Z,22.42
2023-04-17T00:36:09.881Z,23.02
2023-04-17T00:38:36.705Z,25.98
2023-04-17T00:41:03.539Z,19.85
2023-04-17T00:43:30.409Z,18.55
2023-04-17T00:45:58.164Z,17.75
2023-04-17T00:48:25.486Z,19.35
2023-04-17T00:50:53.881Z,19.40
2023-04-17T00:53:20.900Z,22.33
2023-04-17T00:55:50.933Z,21.40
2023-04-17T00:58:18.313Z,20.85
2023-04-17T01:00:45.119Z,17.50
2023-04-17T01:03:12.474Z,21.15
2023-04-17T01:05:40.372Z,17.55
2023-04-17T01:08:07.277Z,20.30
2023-04-17T01:10:34.203Z,17.60
2023-04-17T01:13:08.619Z,17.60
2023-04-17T01:15:36.583Z,21.60
2023-04-17T01:18:03.775Z,20.58
2023-04-17T01:20:31.403Z,20.05
2023-04-17T01:22:58.916Z,28.38
2023-04-17T01:25:27.098Z,21.98
2023-04-17T01:27:54.190Z,21.27
2023-04-17T01:30:21.271Z,17.13
2023-04-17T01:32:48.186Z,20.10
2023-04-17T01:35:15.049Z,23.75
2023-04-17T01:37:41.954Z,21.58
2023-04-17T01:40:09.774Z,20.15
2023-04-17T01:42:36.724Z,19.23
2023-04-17T01:45:04.678Z,25.63
2023-04-17T01:47:31.626Z,23.67
2023-04-17T01:49:58.569Z,20.85
2023-04-17T01:52:25.441Z,21.08
2023-04-17T01:54:52.284Z,22.20
2023-04-17T01:57:19.136Z,18.35
2023-04-17T01:59:45.999Z,16.50
2023-04-17T02:02:12.872Z,21.00
2023-04-17T02:04:39.934Z,16.33
2023-04-17T02:07:06.873Z,20.42
2023-04-17T02:09:33.698Z,22.95
2023-04-17T02:12:24.507Z,20.40
2023-04-17T02:15:02.185Z,26.85
2023-04-17T02:20:18.630Z,21.52
2023-04-17T02:22:45.543Z,17.63
2023-04-17T02:25:12.479Z,20.17
2023-04-17T02:27:39.763Z,23.77
2023-04-17T02:30:07.810Z,19.00
2023-04-17T02:32:34.862Z,24.95
2023-04-17T02:35:01.747Z,22.90
2023-04-17T02:37:28.653Z,16.73
2023-04-17T02:39:56.220Z,17.88
2023-04-17T02:42:23.039Z,19.27
2023-04-17T02:44:49.884Z,20.08
2023-04-17T02:47:16.739Z,23.92
2023-04-17T02:49:43.602Z,19.00
2023-04-17T02:52:10.531Z,20.38
2023-04-17T02:54:37.383Z,17.58
2023-04-17T02:57:04.213Z,19.10
2023-04-17T02:59:31.102Z,16.85
2023-04-17T03:02:00.709Z,21.02
2023-04-17T03:04:30.391Z,25.60
2023-04-17T03:06:57.320Z,16.30
2023-04-17T03:09:24.903Z,21.30
2023-04-17T03:11:51.854Z,24.70
2023-04-17T03:14:18.765Z,21.10
2023-04-17T03:16:45.801Z,21.13
2023-04-17T03:19:12.904Z,18.67
2023-04-17T03:21:39.852Z,20.08
2023-04-17T03:24:06.956Z,26.55
2023-04-17T03:26:33.823Z,21.50
2023-04-17T03:29:00.713Z,19.15
2023-04-17T03:31:28.046Z,21.73
2023-04-17T03:33:55.167Z,21.08
2023-04-17T03:36:22.018Z,17.80
2023-04-17T03:38:48.827Z,19.95
2023-04-17T03:41:15.864Z,24.60
2023-04-17T03:43:42.677Z,18.55
2023-04-17T03:46:09.616Z,24.30
2023-04-17T03:48:36.492Z,21.05
2023-04-17T03:51:03.594Z,23.90
2023-04-17T03:53:31.074Z,24.38
2023-04-17T03:55:57.906Z,20.17
2023-04-17T03:58:24.759Z,20.48
2023-04-17T04:00:55.509Z,22.50
2023-04-17T04:03:22.584Z,20.90
2023-04-17T04:05:49.724Z,22.55
2023-04-17T04:08:16.545Z,26.33
2023-04-17T04:10:44.991Z,25.00
2023-04-17T04:13:12.563Z,22.48
2023-04-17T04:15:39.419Z,26.20
2023-04-17T04:18:06.288Z,22.67
2023-04-17T04:20:33.328Z,31.23
2023-04-17T04:23:00.170Z,18.27
2023-04-17T04:25:27.065Z,22.67
2023-04-17T04:27:53.907Z,31.52
2023-04-17T04:30:21.739Z,20.45
2023-04-17T04:32:48.908Z,20.00
2023-04-17T04:35:15.930Z,20.15
2023-04-17T04:37:43.086Z,19.85
2023-04-17T04:40:11.040Z,23.98
2023-04-17T04:42:59.176Z,24.02
2023-04-17T04:45:26.012Z,20.80
2023-04-17T04:47:52.905Z,20.45
2023-04-17T04:50:20.352Z,18.02
2023-04-17T04:52:47.183Z,21.45
2023-04-17T04:55:14.615Z,28.77
2023-04-17T04:57:41.710Z,18.30
2023-04-17T05:03:59.216Z,27.85
2023-04-17T05:06:26.211Z,22.50
2023-04-17T05:08:52.983Z,22.52
2023-04-17T05:11:19.834Z,20.77
2023-04-17T05:13:46.581Z,20.52
2023-04-17T05:16:13.467Z,19.92
2023-04-17T05:18:40.326Z,27.92
2023-04-17T05:21:07.172Z,23.02
2023-04-17T05:23:34.059Z,25.10
2023-04-17T05:26:00.911Z,22.80
2023-04-17T05:28:29.789Z,18.13
2023-04-17T05:30:57.078Z,19.73
2023-04-17T05:33:25.221Z,23.98
2023-04-17T05:35:54.800Z,23.65
2023-04-17T05:38:22.893Z,21.55
2023-04-17T05:40:49.717Z,21.45
2023-04-17T05:43:16.610Z,26.63
2023-04-17T05:45:43.456Z,24.20
2023-04-17T05:48:10.425Z,21.17
2023-04-17T05:50:37.588Z,22.90
2023-04-17T05:53:04.982Z,24.02
2023-04-17T05:55:31.835Z,26.52
2023-04-17T05:57:58.704Z,22.15
2023-04-17T06:00:26.136Z,23.77
2023-04-17T06:02:53.034Z,23.40
2023-04-17T06:05:19.931Z,22.58
2023-04-17T06:07:46.999Z,23.35
2023-04-17T06:10:14.221Z,17.17
2023-04-17T06:12:41.200Z,26.38
2023-04-17T06:15:11.261Z,22.35
2023-04-17T06:17:39.178Z,24.17
2023-04-17T06:20:10.243Z,20.23
2023-04-17T06:22:44.249Z,20.05
2023-04-17T06:25:11.091Z,26.70
2023-04-17T06:27:37.893Z,22.60
2023-04-17T06:30:05.744Z,25.45
2023-04-17T06:32:32.647Z,22.73
2023-04-17T06:34:59.856Z,23.98
2023-04-17T06:37:26.784Z,21.27
2023-04-17T06:39:53.537Z,19.50
2023-04-17T06:42:20.669Z,22.88
2023-04-17T06:44:47.408Z,20.02
2023-04-17T06:47:14.214Z,24.17
2023-04-17T06:49:41.036Z,22.23
2023-04-17T06:52:07.849Z,17.00
2023-04-17T06:54:34.636Z,18.67
2023-04-17T06:57:03.192Z,22.23
2023-04-17T06:59:29.974Z,27.80
2023-04-17T07:01:56.766Z,17.65
2023-04-17T07:04:23.684Z,19.50
2023-04-17T07:06:50.833Z,21.27
2023-04-17T07:09:17.643Z,26.58
2023-04-17T07:11:44.452Z,17.42
2023-04-17T07:14:12.791Z,15.25
2023-04-17T07:16:39.858Z,14.00
2023-04-17T07:19:06.759Z,21.38
2023-04-17T07:21:33.873Z,15.57
2023-04-17T07:24:00.841Z,13.52
2023-04-17T07:26:27.702Z,16.67
2023-04-17T07:28:54.518Z,17.67
2023-04-17T07:31:22.185Z,20.23
2023-04-17T07:33:49.328Z,20.05
2023-04-17T07:36:16.339Z,15.20
2023-04-17T07:38:43.156Z,25.50
2023-04-17T07:41:11.742Z,20.50
2023-04-17T07:43:38.651Z,16.85
2023-04-17T07:46:05.750Z,12.98
2023-04-17T07:48:32.621Z,16.63
2023-04-17T07:51:01.429Z,16.20
2023-04-17T07:53:29.085Z,20.27
2023-04-17T07:55:56.516Z,15.63
2023-04-17T07:58:24.195Z,17.33
2023-04-17T08:00:52.037Z,13.75
2023-04-17T08:03:22.414Z,16.30
2023-04-17T08:05:50.055Z,17.92
2023-04-17T08:08:16.936Z,15.00
2023-04-17T08:10:43.720Z,16.35
2023-04-17T08:13:10.544Z,19.25
2023-04-17T08:15:40.610Z,12.30
2023-04-17T08:18:09.658Z,16.08
2023-04-17T08:20:36.764Z,21.08
2023-04-17T08:23:05.106Z,12.18
2023-04-17T08:25:32.263Z,14.43
2023-04-17T08:27:59.045Z,11.15
2023-04-17T08:30:25.993Z,13.65
2023-04-17T08:32:52.815Z,18.83
2023-04-17T08:35:20.275Z,18.63
2023-04-17T08:37:47.079Z,12.18
2023-04-17T08:40:15.390Z,18.70
2023-04-17T08:42:43.086Z,18.95
2023-04-17T08:45:11.971Z,15.45
2023-04-17T08:47:42.531Z,16.92
2023-04-17T08:50:17.372Z,14.25
2023-04-17T08:52:46.532Z,13.18
2023-04-17T08:55:23.705Z,14.00
2023-04-17T08:57:54.548Z,13.73
2023-04-17T09:00:29.043Z,21.65
2023-04-17T09:02:57.982Z,20.08
2023-04-17T09:05:26.879Z,13.63
2023-04-17T09:08:21.096Z,9.55
2023-04-17T09:10:52.610Z,11.60
2023-04-17T09:13:21.915Z,11.70
2023-04-17T09:16:05.611Z,12.80
2023-04-17T09:18:34.045Z,16.85
2023-04-17T09:21:02.538Z,9.23
2023-04-17T09:23:31.734Z,12.95
2023-04-17T09:26:12.588Z,12.90
2023-04-17T09:28:40.416Z,18.00
2023-04-17T09:31:26.450Z,15.25
2023-04-17T09:34:04.725Z,10.02
2023-04-17T09:36:33.927Z,14.25
2023-04-17T09:39:04.696Z,35.75
2023-04-17T09:41:33.293Z,11.27
2023-04-17T09:44:05.327Z,11.27
2023-04-17T09:46:41.452Z,12.55
2023-04-17T09:49:24.242Z,13.52
2023-04-17T09:51:52.457Z,11.90
2023-04-17T09:54:20.793Z,12.23
2023-04-17T09:56:49.672Z,13.63
2023-04-17T09:59:17.848Z,11.10
2023-04-17T10:01:45.608Z,11.63
2023-04-17T10:04:12.882Z,15.82
2023-04-17T10:06:40.190Z,10.00
2023-04-17T10:09:08.050Z,21.80
2023-04-17T10:11:38.082Z,11.15
2023-04-17T10:14:17.864Z,12.52
2023-04-17T10:16:44.798Z,19.17
2023-04-17T10:19:29.998Z,11.75
2023-04-17T10:22:20.003Z,9.98
2023-04-17T10:24:53.622Z,22.17
2023-04-17T10:27:26.913Z,35.65
2023-04-17T10:29:58.761Z,17.38
2023-04-17T10:32:28.763Z,16.05
2023-04-17T10:34:59.769Z,14.63
2023-04-17T10:37:48.589Z,14.77
2023-04-17T10:40:22.773Z,13.52
2023-04-17T10:43:15.423Z,15.90
2023-04-17T10:46:03.588Z,9.57
2023-04-17T10:48:33.049Z,14.45
2023-04-17T10:51:20.860Z,12.70
2023-04-17T10:53:54.446Z,9.77
2023-04-17T10:56:37.225Z,14.10
2023-04-17T10:59:20.773Z,10.73
2023-04-17T11:01:47.610Z,12.15
2023-04-17T11:04:27.726Z,15.13
2023-04-17T11:06:55.690Z,11.95
2023-04-17T11:09:24.174Z,18.98
2023-04-17T11:11:51.322Z,16.52
2023-04-17T11:14:19.859Z,15.43
2023-04-17T11:16:48.233Z,10.05
2023-04-17T11:19:23.503Z,12.63
2023-04-17T11:22:01.438Z,13.52
2023-04-17T11:24:32.338Z,12.45
2023-04-17T11:27:01.358Z,14.85
2023-04-17T11:29:28.901Z,14.93
2023-04-17T11:31:57.201Z,10.55
2023-04-17T11:34:27.118Z,11.48
2023-04-17T11:36:56.245Z,11.23
2023-04-17T11:39:24.768Z,13.18
2023-04-17T11:41:52.488Z,16.17
2023-04-17T11:44:20.706Z,10.13
2023-04-17T11:46:53.985Z,14.65
2023-04-17T11:49:28.814Z,11.38
2023-04-17T11:51:59.311Z,13.32
2023-04-17T11:54:27.870Z,10.90
2023-04-17T11:57:03.468Z,11.73
2023-04-17T11:59:35.319Z,12.32
2023-04-17T12:02:03.567Z,16.00
2023-04-17T12:04:34.079Z,13.40
2023-04-17T12:07:06.457Z,9.88
2023-04-17T12:09:34.445Z,13.02
2023-04-17T12:12:03.968Z,9.73
2023-04-17T12:14:31.608Z,13.50
2023-04-17T12:16:58.682Z,11.88
2023-04-17T12:19:26.901Z,14.07
2023-04-17T12:21:54.555Z,11.07
2023-04-17T12:24:24.253Z,12.00
2023-04-17T12:26:51.949Z,15.63
2023-04-17T12:29:22.045Z,9.32
2023-04-17T12:31:56.708Z,15.88
2023-04-17T12:34:24.947Z,12.38
2023-04-17T12:36:53.467Z,11.05
2023-04-17T12:39:20.372Z,12.25
2023-04-17T12:41:47.153Z,9.73
2023-04-17T12:44:14.460Z,10.85
2023-04-17T12:46:41.716Z,12.57
2023-04-17T12:49:09.034Z,9.88
2023-04-17T12:51:37.937Z,12.00
2023-04-17T12:54:05.541Z,8.38
2023-04-17T12:56:32.534Z,15.90
2023-04-17T12:59:02.143Z,12.90
2023-04-17T13:01:30.107Z,10.40
2023-04-17T13:03:57.308Z,8.65
2023-04-17T13:06:24.379Z,10.35
2023-04-17T13:08:51.206Z,8.70
2023-04-17T13:11:17.987Z,10.55
2023-04-17T13:13:45.102Z,9.50
2023-04-17T13:16:11.945Z,11.35
2023-04-17T13:18:38.811Z,8.70
2023-04-17T13:21:06.064Z,12.07
2023-04-17T13:23:32.820Z,13.30
2023-04-17T13:25:59.868Z,11.23
2023-04-17T13:28:26.653Z,9.52
2023-04-17T13:30:53.492Z,11.07
2023-04-17T13:33:20.393Z,9.95
2023-04-17T13:35:47.588Z,8.25
2023-04-17T13:38:14.376Z,7.80
2023-04-17T13:40:41.267Z,9.43
2023-04-17T13:43:09.140Z,11.32
2023-04-17T13:45:36.139Z,9.48
2023-04-17T13:48:03.122Z,10.50
2023-04-17T13:50:30.321Z,11.95
2023-04-17T13:52:57.157Z,11.15
2023-04-17T13:55:24.153Z,12.27
2023-04-17T13:57:51.679Z,9.40
2023-04-17T14:00:18.920Z,10.27
2023-04-17T14:02:46.469Z,11.65
2023-04-17T14:05:13.645Z,8.65
2023-04-17T14:07:40.590Z,14.25
2023-04-17T14:10:08.339Z,13.70
2023-04-17T14:12:35.385Z,15.43
2023-04-17T14:15:02.235Z,8.70
2023-04-17T14:17:29.114Z,10.88
2023-04-17T14:19:56.055Z,9.65
2023-04-17T14:22:22.895Z,25.65
2023-04-17T14:24:49.705Z,10.40
2023-04-17T14:27:16.572Z,14.18
2023-04-17T14:29:43.489Z,10.50
2023-04-17T14:32:10.326Z,14.57
2023-04-17T14:34:37.132Z,16.88
2023-04-17T14:37:04.002Z,13.35
2023-04-17T14:39:32.318Z,10.60
2023-04-17T14:42:01.791Z,18.15
2023-04-17T14:44:29.051Z,9.80
2023-04-17T14:46:56.990Z,12.00
2023-04-17T14:49:24.069Z,14.85
2023-04-17T14:51:50.894Z,11.48
2023-04-17T14:54:17.672Z,12.80
2023-04-17T14:56:44.423Z,13.65
2023-04-17T14:59:11.458Z,10.48
2023-04-17T15:01:38.417Z,9.75
2023-04-17T15:04:05.528Z,10.50
2023-04-17T15:06:32.476Z,15.93
2023-04-17T15:08:59.289Z,12.88
2023-04-17T15:11:26.229Z,14.07
2023-04-17T15:13:53.014Z,16.15
2023-04-17T15:16:20.092Z,14.18
2023-04-17T15:18:46.945Z,10.90
2023-04-17T15:21:15.758Z,11.43
2023-04-17T15:23:42.531Z,9.80
2023-04-17T15:26:09.685Z,11.40
2023-04-17T15:28:37.017Z,16.70
2023-04-17T15:31:03.860Z,10.50
2023-04-17T15:33:31.036Z,12.27
2023-04-17T15:35:59.403Z,10.77
2023-04-17T15:38:27.025Z,13.07
2023-04-17T15:40:54.424Z,12.18
2023-04-17T15:43:21.665Z,14.95
2023-04-17T15:45:49.388Z,11.82
2023-04-17T15:48:16.344Z,13.25
2023-04-17T15:50:43.382Z,17.45
2023-04-17T15:53:10.604Z,14.63
2023-04-17T15:55:38.546Z,13.90
2023-04-17T15:58:05.788Z,14.32
2023-04-17T16:00:34.097Z,12.05
2023-04-17T16:03:01.126Z,15.68
2023-04-17T16:05:29.917Z,16.88
2023-04-17T16:07:56.895Z,14.73
2023-04-17T16:10:23.791Z,11.20
2023-04-17T16:12:50.678Z,11.15
2023-04-17T16:15:18.132Z,18.20
2023-04-17T16:17:45.887Z,12.10
2023-04-17T16:20:13.197Z,13.18
2023-04-17T16:22:40.631Z,12.23
2023-04-17T16:25:07.987Z,17.17
2023-04-17T16:27:34.849Z,12.52
2023-04-17T16:30:03.012Z,13.07
2023-04-17T16:32:31.783Z,14.70
2023-04-17T16:34:58.976Z,10.90
2023-04-17T16:37:26.027Z,14.38
2023-04-17T16:39:53.028Z,10.85
2023-04-17T16:42:19.803Z,11.23
2023-04-17T16:44:46.795Z,14.98
2023-04-17T16:47:14.752Z,11.57
2023-04-17T16:49:42.706Z,12.40
2023-04-17T16:52:09.632Z,11.38
2023-04-17T16:54:36.454Z,11.00
2023-04-17T16:57:05.882Z,7.25
2023-04-17T16:59:32.922Z,7.93
2023-04-17T17:02:02.560Z,10.38
2023-04-17T17:04:30.560Z,9.80
2023-04-17T17:06:57.706Z,9.35
2023-04-17T17:09:25.540Z,8.77
2023-04-17T17:11:52.406Z,11.20
2023-04-17T17:14:19.231Z,8.52
2023-04-17T17:16:46.236Z,10.63
2023-04-17T17:19:14.762Z,8.90
2023-04-17T17:27:16.432Z,18.00
2023-04-17T17:29:43.219Z,10.23
2023-04-17T17:32:10.055Z,7.45
2023-04-17T17:34:36.905Z,6.80
2023-04-17T17:37:03.802Z,5.38
2023-04-17T17:39:30.577Z,6.13
2023-04-17T17:41:57.800Z,8.10
2023-04-17T17:44:24.771Z,7.45
2023-04-17T17:46:51.579Z,7.55
2023-04-17T17:49:18.533Z,6.70
2023-04-17T17:51:45.385Z,7.70
2023-04-17T17:54:12.564Z,9.00
2023-04-17T17:56:39.662Z,6.22
2023-04-17T17:59:07.729Z,6.68
2023-04-17T18:01:34.662Z,6.00
2023-04-17T18:04:01.822Z,5.05
2023-04-17T18:06:29.028Z,5.65
2023-04-17T18:08:56.063Z,3.97
2023-04-17T18:11:22.979Z,5.88
2023-04-17T18:13:49.820Z,4.28
2023-04-17T18:16:17.281Z,4.57
2023-04-17T18:18:44.149Z,3.72
2023-04-17T18:21:12.255Z,4.40
2023-04-17T18:23:39.044Z,4.38
2023-04-17T18:26:05.927Z,5.68
2023-04-17T18:28:33.202Z,3.78
2023-04-17T18:31:00.136Z,3.25
2023-04-17T18:33:28.778Z,3.70
2023-04-17T18:35:55.781Z,4.45
2023-04-17T18:38:22.569Z,4.75
2023-04-17T18:40:54.567Z,3.08
2023-04-17T18:43:21.359Z,2.90
2023-04-17T18:45:48.173Z,3.20
2023-04-17T18:48:15.056Z,3.67
2023-04-17T18:50:41.978Z,5.95
2023-04-17T18:53:08.813Z,3.70
2023-04-17T18:55:37.426Z,4.60
2023-04-17T18:58:05.346Z,3.85
2023-04-17T19:00:32.577Z,3.08
2023-04-17T19:02:59.388Z,4.50
2023-04-17T19:05:27.188Z,11.02
2023-04-17T19:07:54.049Z,7.85
2023-04-17T19:10:20.861Z,5.10
2023-04-17T19:12:47.930Z,11.77
2023-04-17T19:15:17.514Z,5.75
2023-04-17T19:17:44.496Z,6.10
2023-04-17T19:20:11.428Z,6.32
2023-04-17T19:22:38.689Z,5.10
2023-04-17T19:25:05.872Z,5.43
2023-04-17T19:27:32.799Z,4.90
2023-04-17T19:29:59.807Z,3.70
2023-04-17T19:32:26.967Z,5.55
2023-04-17T19:34:53.845Z,6.47
2023-04-17T19:37:21.032Z,7.75
2023-04-17T19:39:48.088Z,4.75
2023-04-17T19:42:15.038Z,6.55
2023-04-17T19:44:41.797Z,4.03
2023-04-17T19:47:08.701Z,4.70
2023-04-17T19:49:35.759Z,7.13
2023-04-17T19:52:02.577Z,5.03
2023-04-17T19:54:29.359Z,3.97
2023-04-17T19:56:56.235Z,7.00
2023-04-17T19:59:23.265Z,5.15
2023-04-17T20:01:51.220Z,5.53
2023-04-17T20:04:18.589Z,4.10
2023-04-17T20:06:45.663Z,2.97
2023-04-17T20:09:14.554Z,4.85
2023-04-17T20:11:41.861Z,3.90
2023-04-17T20:14:08.681Z,4.50
2023-04-17T20:16:35.908Z,4.00
2023-04-17T20:19:02.742Z,2.97
2023-04-17T20:21:29.572Z,6.00
2023-04-17T20:23:57.727Z,3.47
2023-04-17T20:26:24.545Z,4.75
2023-04-17T20:28:51.349Z,4.85
2023-04-17T20:31:18.229Z,5.13
2023-04-17T20:33:45.061Z,4.53
2023-04-17T20:36:13.058Z,4.00
2023-04-17T20:38:39.990Z,5.00
2023-04-17T20:41:06.789Z,5.18
2023-04-17T20:43:33.584Z,7.25
2023-04-17T20:46:00.604Z,8.38
2023-04-17T20:48:27.524Z,4.85
2023-04-17T20:50:55.001Z,4.80
2023-04-17T20:53:21.844Z,4.95
2023-04-17T20:55:48.727Z,5.15
2023-04-17T20:58:15.615Z,5.32
2023-04-17T21:00:54.410Z,4.82
2023-04-17T21:03:25.262Z,7.22
2023-04-17T21:05:52.262Z,5.82
2023-04-17T21:08:19.161Z,4.53
2023-04-17T21:10:45.973Z,6.40
2023-04-17T21:13:13.868Z,5.05
2023-04-17T21:15:42.239Z,4.68
2023-04-17T21:18:09.371Z,4.28
2023-04-17T21:20:36.253Z,6.07
2023-04-17T21:23:03.038Z,6.13
2023-04-17T21:25:29.884Z,5.22
2023-04-17T21:27:56.803Z,7.38
2023-04-17T21:30:25.868Z,6.80
2023-04-17T21:32:54.022Z,5.40
2023-04-17T21:35:20.934Z,7.13
2023-04-17T21:37:47.698Z,9.32
2023-04-17T21:40:14.667Z,6.72
2023-04-17T21:42:41.511Z,7.38
2023-04-17T21:45:08.829Z,6.78
2023-04-17T21:47:35.721Z,11.10
2023-04-17T21:50:03.038Z,7.22
2023-04-17T21:52:29.878Z,7.15
2023-04-17T21:55:02.877Z,7.38
2023-04-17T21:57:29.858Z,11.27
2023-04-17T21:59:56.680Z,6.95
2023-04-17T22:02:23.560Z,7.63
2023-04-17T22:04:50.553Z,8.07
2023-04-17T22:07:18.570Z,8.77
2023-04-17T22:09:45.393Z,7.68
2023-04-17T22:12:13.535Z,6.53
2023-04-17T22:14:40.648Z,7.28
2023-04-17T22:17:08.000Z,6.72
2023-04-17T22:19:34.831Z,6.32
2023-04-17T22:22:01.766Z,7.15
2023-04-17T22:24:28.636Z,7.13
2023-04-17T22:26:55.470Z,6.20
2023-04-17T22:29:22.363Z,5.68
2023-04-17T22:31:49.802Z,5.30
2023-04-17T22:34:16.636Z,6.47
2023-04-17T22:36:43.442Z,5.75
2023-04-17T22:39:10.222Z,7.53
2023-04-17T22:41:37.047Z,4.88
2023-04-17T22:44:03.929Z,5.68
2023-04-17T22:46:30.868Z,5.78
2023-04-17T22:48:58.387Z,5.50
2023-04-17T22:51:29.429Z,6.55
2023-04-17T22:53:56.357Z,7.68
2023-04-17T22:56:24.513Z,7.35
2023-04-17T22:58:51.440Z,6.10
2023-04-17T23:01:18.290Z,8.38
2023-04-17T23:03:45.326Z,9.40
2023-04-17T23:06:12.146Z,9.77
2023-04-17T23:08:39.007Z,5.75
2023-04-17T23:11:06.150Z,9.18
2023-04-17T23:13:33.014Z,6.28
2023-04-17T23:15:59.904Z,11.10
2023-04-17T23:18:26.789Z,7.13
2023-04-17T23:20:53.619Z,7.65
2023-04-17T23:23:20.665Z,6.82
2023-04-17T23:25:47.663Z,8.63
2023-04-17T23:28:14.593Z,8.35
2023-04-17T23:30:41.431Z,10.88
2023-04-17T23:33:08.307Z,11.20
2023-04-17T23:47:04.823Z,12.18
2023-04-17T23:49:31.700Z,8.40
2023-04-17T23:51:58.541Z,10.15
2023-04-17T23:54:25.484Z,12.75
2023-04-17T23:56:52.292Z,11.23
2023-04-17T23:59:19.342Z,10.40
